Skip Navigation Links
NOAA logo - Click to go to the NOAA homepage
NOAA's National Weather Service
Alaska Aviation Weather Unit
  NWS logo - Click to go to the NWS homepage
Left Navbar Graphic     02 AKDT = 10 GMT

   
NOAA is celebrating 200 years of science, service, and stewardship. Visit the NOAA 200th celebration Web site to learn more.
USA.gov is the U.S. Government's official Web portal to all Federal, state and local government Web resources and services.
Facebook
NWS on Facebook

AAWU Home :: Display TAF Add Bookmark
TAF PAFA 270520Z 2706/2812 36006KT P6SM SKC
     FM271200 03003KT P6SM FEW100 SCT200
     FM280400 02007KT P6SM FEW050 BKN100 OVC200
     FM281000 01006KT P6SM -SN BKN035 OVC080=
METAR PAFA 270453Z 36006KT 10SM CLR M08/M18 A2978=

METAR PAFA 270553Z 36008KT 10SM CLR M10/M18 A2978=

METAR PAFA 270653Z 36008KT 10SM CLR M11/M18 A2978=

METAR PAFA 270753Z 01010KT 10SM CLR M11/M19 A2978=

METAR PAFA 270853Z 04007KT 10SM CLR M14/M19 A2977=

METAR PAFA 270953Z 05006KT 10SM CLR M14/M20 A2976=


NOAA's National Weather Service
Alaska Aviation Weather Unit
6930 Sand Lake Road
Anchorage, AK 99502-1845
Disclaimer
Credits
Glossary
Privacy Policy
About Us
Career Opportunities
Contact AAWU Internet Services Site last modified: April, 17th 2012